KMKY Airport Information

Runway Information
Runway 17 Length 5000 ft width 100 ft
Elevation 4 ft Threshold ft Heading 168
Runway 35 Length 5000 ft Width 100 ft
Elevation 4 ft Threshold ft Heading 348
Airport Frequencies
Type A/D Name FORT MYERS Frequency 119.75 MHZ
Type AWOS Name AWOS 3 Frequency 120.075 MHZ
Type CLD Name CLNC DEL Frequency 120.8 MHZ
Type UNIC Name CTAF/UNICO Frequency 122.8 MHZ
Airport Navaids
Airport Weather Information & NOTAM
ADDS - METARS form results

(0012 UTC 29 June 2022)
Data provider http://aviationweather.gov/metar/data/
 
METAR text: KMKY 282356Z AUTO 00000KT 10SM CLR 26/23 A3007 RMK AO2 SLPNO 60000 T02610233 10328 20256 53005 TSNO $
Conditions at: KMKY (MARCO ISLAND , FL, US) observed 2356 UTC 28 June 2022
Temperature: 26.1°C (79°F)
Dewpoint: 23.3°C (74°F) [RH = 85%]
Pressure (altimeter): 30.07 inches Hg (1018.4 mb)
Winds: calm
Visibility: 10 or more miles (16+ km)
Ceiling: at least 12,000 feet AGL
Clouds: sky clear below 12,000 feet AGL
Weather:
SOME DATA ABOVE MAY BE INACCURATE!!!
"$" is an indication the sensor requires maintenance